createdAt,value
2018-08-23T00:01:37.849Z,22.20
2018-08-23T00:04:10.741Z,22.20
2018-08-23T00:06:48.908Z,22.10
2018-08-23T00:09:19.616Z,22.10
2018-08-23T00:11:49.345Z,22.10
2018-08-23T00:14:19.211Z,22.10
2018-08-23T00:16:48.879Z,22.10
2018-08-23T00:19:18.660Z,22.00
2018-08-23T00:21:49.481Z,22.10
2018-08-23T00:24:24.732Z,22.10
2018-08-23T00:26:59.470Z,22.10
2018-08-23T00:29:31.350Z,22.10
2018-08-23T00:32:04.224Z,22.00
2018-08-23T00:34:36.004Z,22.00
2018-08-23T00:37:06.283Z,22.00
2018-08-23T00:39:36.089Z,22.00
2018-08-23T00:42:07.952Z,21.90
2018-08-23T00:44:54.598Z,21.90
2018-08-23T00:47:28.261Z,21.90
2018-08-23T00:49:57.977Z,21.90
2018-08-23T00:52:38.741Z,21.90
2018-08-23T00:55:22.036Z,21.90
2018-08-23T00:57:51.723Z,21.80
2018-08-23T01:00:22.564Z,21.80
2018-08-23T01:02:54.052Z,21.80
2018-08-23T01:05:28.777Z,21.70
2018-08-23T01:07:58.533Z,21.70
2018-08-23T01:10:28.354Z,21.70
2018-08-23T01:13:01.552Z,21.70
2018-08-23T01:15:32.358Z,21.60
2018-08-23T01:18:16.736Z,21.60
2018-08-23T01:20:47.473Z,21.50
2018-08-23T01:23:17.234Z,21.50
2018-08-23T01:25:47.868Z,21.50
2018-08-23T01:28:17.717Z,21.50
2018-08-23T01:30:48.117Z,21.50
2018-08-23T01:33:21.853Z,21.40
2018-08-23T01:35:52.471Z,21.40
2018-08-23T01:38:22.161Z,21.40
2018-08-23T01:40:59.382Z,21.40
2018-08-23T01:43:29.089Z,21.30
2018-08-23T01:45:58.857Z,21.40
2018-08-23T01:48:28.505Z,21.40
2018-08-23T01:50:58.428Z,21.30
2018-08-23T01:53:32.536Z,21.30
2018-08-23T01:56:02.339Z,21.30
2018-08-23T01:58:32.172Z,21.30
2018-08-23T02:01:12.915Z,21.20
2018-08-23T02:03:42.789Z,21.20
2018-08-23T02:06:13.160Z,21.20
2018-08-23T02:08:45.399Z,21.20
2018-08-23T02:11:15.387Z,21.20
2018-08-23T02:13:49.500Z,21.20
2018-08-23T02:16:19.169Z,21.20
2018-08-23T02:18:48.889Z,21.10
2018-08-23T02:21:18.468Z,21.10
2018-08-23T02:23:54.584Z,21.10
2018-08-23T02:26:24.415Z,21.10
2018-08-23T02:28:54.068Z,21.10
2018-08-23T02:31:23.864Z,21.10
2018-08-23T02:33:53.490Z,21.10
2018-08-23T02:36:24.628Z,21.10
2018-08-23T02:39:00.818Z,21.10
2018-08-23T02:41:30.884Z,21.00
2018-08-23T02:44:00.684Z,21.00
2018-08-23T02:46:31.898Z,21.00
2018-08-23T02:49:01.737Z,21.10
2018-08-23T02:51:41.900Z,21.00
2018-08-23T02:54:13.015Z,21.00
2018-08-23T02:57:02.051Z,21.00
2018-08-23T02:59:32.113Z,21.00
2018-08-23T03:02:01.850Z,21.00
2018-08-23T03:04:31.636Z,21.00
2018-08-23T03:07:02.701Z,20.90
2018-08-23T03:09:34.636Z,20.90
2018-08-23T03:12:24.067Z,20.80
2018-08-23T03:14:53.821Z,20.80
2018-08-23T03:17:28.709Z,20.80
2018-08-23T03:20:02.719Z,20.80
2018-08-23T03:22:33.525Z,20.80
2018-08-23T03:25:06.245Z,20.80
2018-08-23T03:27:35.949Z,20.80
2018-08-23T03:30:07.057Z,20.80
2018-08-23T03:32:36.796Z,20.80
2018-08-23T03:35:09.154Z,20.70
2018-08-23T03:37:41.663Z,20.70
2018-08-23T03:40:17.232Z,20.60
2018-08-23T03:42:46.889Z,20.70
2018-08-23T03:45:21.540Z,20.70
2018-08-23T03:47:53.317Z,20.70
2018-08-23T03:50:23.056Z,20.70
2018-08-23T03:52:53.896Z,20.60
2018-08-23T03:55:26.000Z,20.60
2018-08-23T03:58:01.665Z,20.60
2018-08-23T04:00:36.580Z,20.60
2018-08-23T04:03:10.591Z,20.50
2018-08-23T04:05:40.458Z,20.50
2018-08-23T04:08:10.102Z,20.50
2018-08-23T04:10:39.869Z,20.60
2018-08-23T04:13:09.523Z,20.60
2018-08-23T04:15:39.219Z,20.50
2018-08-23T04:18:14.789Z,20.50
2018-08-23T04:20:52.447Z,20.50
2018-08-23T04:23:22.249Z,20.40
2018-08-23T04:25:51.899Z,20.40
2018-08-23T04:28:21.592Z,20.40
2018-08-23T04:30:51.237Z,20.50
2018-08-23T04:33:20.900Z,20.50
2018-08-23T04:35:50.595Z,20.50
2018-08-23T04:38:20.150Z,20.60
2018-08-23T04:41:13.314Z,20.60
2018-08-23T04:43:43.023Z,20.60
2018-08-23T04:46:16.856Z,20.60
2018-08-23T04:48:46.566Z,20.70
2018-08-23T04:51:16.232Z,20.70
2018-08-23T04:53:45.920Z,20.80
2018-08-23T04:56:15.607Z,20.80
2018-08-23T04:58:45.269Z,20.80
2018-08-23T05:01:14.951Z,20.90
2018-08-23T05:03:44.749Z,20.90
2018-08-23T05:06:14.391Z,21.00
2018-08-23T05:08:44.158Z,21.00
2018-08-23T05:11:14.023Z,21.00
2018-08-23T05:13:43.941Z,21.10
2018-08-23T05:16:13.856Z,21.10
2018-08-23T05:18:43.660Z,21.20
2018-08-23T05:21:13.363Z,21.30
2018-08-23T05:23:43.188Z,21.40
2018-08-23T05:26:17.361Z,21.40
2018-08-23T05:28:59.123Z,21.40
2018-08-23T05:31:29.998Z,21.50
2018-08-23T05:34:02.412Z,21.50
2018-08-23T05:36:32.217Z,21.60
2018-08-23T05:39:02.747Z,21.70
2018-08-23T05:41:32.736Z,21.70
2018-08-23T05:44:19.247Z,21.80
2018-08-23T05:46:51.235Z,21.80
2018-08-23T05:49:20.988Z,22.00
2018-08-23T05:51:50.639Z,22.10
2018-08-23T05:54:20.625Z,22.10
2018-08-23T05:56:50.278Z,22.20
2018-08-23T05:59:20.249Z,22.20
2018-08-23T06:01:49.888Z,22.30
2018-08-23T06:04:25.896Z,22.30
2018-08-23T06:06:55.555Z,22.40
2018-08-23T06:09:25.326Z,22.50
2018-08-23T06:11:54.981Z,22.60
2018-08-23T06:14:24.696Z,22.70
2018-08-23T06:16:56.567Z,22.70
2018-08-23T06:19:27.250Z,22.80
2018-08-23T06:21:57.250Z,22.90
2018-08-23T06:24:28.558Z,23.00
2018-08-23T06:27:00.649Z,23.20
2018-08-23T06:29:33.430Z,23.30
2018-08-23T06:32:17.240Z,23.40
2018-08-23T06:34:48.454Z,23.50
2018-08-23T06:37:18.776Z,23.50
2018-08-23T06:39:48.585Z,23.60
2018-08-23T06:42:18.200Z,23.70
2018-08-23T06:44:53.502Z,23.70
2018-08-23T06:47:26.559Z,23.80
2018-08-23T06:49:56.540Z,23.80
2018-08-23T06:53:01.718Z,23.90
2018-08-23T06:55:35.896Z,24.00
2018-08-23T06:58:05.916Z,24.10
2018-08-23T07:00:35.606Z,24.20
2018-08-23T07:03:06.341Z,24.40
2018-08-23T07:05:36.050Z,24.50
2018-08-23T07:08:05.855Z,24.70
2018-08-23T07:10:35.516Z,24.90
2018-08-23T07:13:05.265Z,25.10
2018-08-23T07:15:34.928Z,25.20
2018-08-23T07:18:09.288Z,25.40
2018-08-23T07:25:44.689Z,25.90
2018-08-23T07:30:43.538Z,30.90
2018-08-23T07:33:13.276Z,32.90
2018-08-23T07:35:43.213Z,33.90
2018-08-23T07:38:12.927Z,34.50
2018-08-23T07:40:42.655Z,35.70
2018-08-23T07:43:12.404Z,36.30
2018-08-23T07:45:42.148Z,37.00
2018-08-23T07:48:11.904Z,37.10
2018-08-23T07:50:41.621Z,37.30
2018-08-23T07:53:11.396Z,37.70
2018-08-23T07:55:41.030Z,38.50
2018-08-23T07:58:10.816Z,39.00
2018-08-23T08:00:41.441Z,39.10
2018-08-23T08:03:12.192Z,40.10
2018-08-23T08:05:43.140Z,40.90
2018-08-23T08:08:13.547Z,40.30
2018-08-23T08:10:45.124Z,40.60
2018-08-23T08:13:14.741Z,40.60
2018-08-23T08:15:44.363Z,41.00
2018-08-23T08:18:23.599Z,41.40
2018-08-23T08:21:01.842Z,41.30
2018-08-23T08:23:31.785Z,41.20
2018-08-23T08:26:01.477Z,40.70
2018-08-23T08:28:31.145Z,41.00
2018-08-23T08:31:02.158Z,41.30
2018-08-23T08:33:35.645Z,41.50
2018-08-23T08:36:06.073Z,41.30
2018-08-23T08:38:36.198Z,41.30
2018-08-23T08:41:05.831Z,41.40
2018-08-23T08:43:35.700Z,41.10
2018-08-23T08:46:05.444Z,41.30
2018-08-23T08:48:35.869Z,41.30
2018-08-23T08:51:19.623Z,41.80
2018-08-23T08:53:49.297Z,41.70
2018-08-23T08:56:28.234Z,41.90
2018-08-23T08:58:57.912Z,41.90
2018-08-23T09:01:27.768Z,42.30
2018-08-23T09:03:57.539Z,42.20
2018-08-23T09:06:31.194Z,42.10
2018-08-23T09:09:05.690Z,42.40
2018-08-23T09:11:35.294Z,42.50
2018-08-23T09:14:04.920Z,42.90
2018-08-23T09:16:34.620Z,42.80
2018-08-23T09:19:05.644Z,42.80
2018-08-23T09:21:35.384Z,43.10
2018-08-23T09:24:19.473Z,43.60
2018-08-23T09:26:49.029Z,43.90
2018-08-23T09:29:30.225Z,44.00
2018-08-23T09:32:15.836Z,43.70
2018-08-23T09:34:45.614Z,43.80
2018-08-23T09:37:15.388Z,44.30
2018-08-23T09:39:46.018Z,44.30
2018-08-23T09:42:15.674Z,44.20
2018-08-23T09:45:17.392Z,45.00
2018-08-23T09:47:47.189Z,45.00
2018-08-23T09:50:17.030Z,44.90
2018-08-23T09:52:48.732Z,44.40
2018-08-23T09:55:19.679Z,44.40
2018-08-23T09:57:49.404Z,44.60
2018-08-23T10:00:24.190Z,44.50
2018-08-23T10:02:58.988Z,44.70
2018-08-23T10:05:33.638Z,44.60
2018-08-23T10:08:08.332Z,43.70
2018-08-23T10:10:43.173Z,43.50
2018-08-23T10:13:18.033Z,43.90
2018-08-23T10:15:52.729Z,44.20
2018-08-23T10:18:27.593Z,44.40
2018-08-23T10:20:59.553Z,44.40
2018-08-23T10:23:29.336Z,43.90
2018-08-23T10:26:04.603Z,43.50
2018-08-23T10:28:39.313Z,43.10
2018-08-23T10:31:09.088Z,42.40
2018-08-23T10:33:38.736Z,42.20
2018-08-23T10:36:08.621Z,41.00
2018-08-23T10:38:38.268Z,40.10
2018-08-23T10:41:08.045Z,39.10
2018-08-23T10:43:42.923Z,38.30
2018-08-23T10:46:12.601Z,37.70
2018-08-23T10:48:42.272Z,37.10
2018-08-23T10:51:12.032Z,36.70
2018-08-23T10:53:41.749Z,36.40
2018-08-23T10:56:11.488Z,36.20
2018-08-23T11:06:08.612Z,36.10
2018-08-23T11:08:39.156Z,35.40
2018-08-23T11:11:43.925Z,35.20
2018-08-23T11:14:18.756Z,35.20
2018-08-23T11:16:53.681Z,35.10
2018-08-23T11:20:27.024Z,35.10
2018-08-23T11:22:56.892Z,35.00
2018-08-23T11:25:26.877Z,34.70
2018-08-23T11:27:56.513Z,34.50
2018-08-23T11:30:26.162Z,34.50
2018-08-23T11:32:55.893Z,34.40
2018-08-23T11:35:25.544Z,34.50
2018-08-23T11:37:55.253Z,34.50
2018-08-23T11:40:25.074Z,34.30
2018-08-23T11:42:54.870Z,34.40
2018-08-23T11:45:24.273Z,34.30
2018-08-23T11:47:53.670Z,34.40
2018-08-23T11:50:23.153Z,34.40
2018-08-23T11:52:52.606Z,34.30
2018-08-23T11:55:22.018Z,34.20
2018-08-23T11:57:51.847Z,34.20
2018-08-23T12:00:21.290Z,34.30
2018-08-23T12:02:50.681Z,34.30
2018-08-23T12:05:20.074Z,34.10
2018-08-23T12:07:50.951Z,34.00
2018-08-23T12:10:21.504Z,33.90
2018-08-23T12:12:52.217Z,33.90
2018-08-23T12:15:30.655Z,33.80
2018-08-23T12:18:00.397Z,33.80
2018-08-23T12:20:29.789Z,33.90
2018-08-23T12:22:59.188Z,33.80
2018-08-23T12:25:28.599Z,33.70
2018-08-23T12:28:01.787Z,33.60
2018-08-23T12:30:32.516Z,33.70
2018-08-23T12:33:02.076Z,33.80
2018-08-23T12:35:32.968Z,33.90
2018-08-23T12:38:11.226Z,34.00
2018-08-23T12:40:45.956Z,33.90
2018-08-23T12:43:15.531Z,33.90
2018-08-23T12:45:45.490Z,33.80
2018-08-23T12:48:15.173Z,33.80
2018-08-23T12:50:45.403Z,33.90
2018-08-23T12:53:14.864Z,33.90
2018-08-23T12:55:44.518Z,33.90
2018-08-23T12:58:14.582Z,33.90
2018-08-23T13:00:43.979Z,33.90
2018-08-23T13:03:13.423Z,33.90
2018-08-23T13:05:42.837Z,33.80
2018-08-23T13:08:12.373Z,33.70
2018-08-23T13:10:41.995Z,33.70
2018-08-23T13:13:11.407Z,33.70
2018-08-23T13:15:40.901Z,33.70
2018-08-23T13:18:10.339Z,33.70
2018-08-23T13:20:39.773Z,33.70
2018-08-23T13:23:09.174Z,33.70
2018-08-23T13:25:43.111Z,33.70
2018-08-23T13:28:12.825Z,33.70
2018-08-23T13:30:42.233Z,33.70
2018-08-23T13:33:11.750Z,33.70
2018-08-23T13:35:41.583Z,33.70
2018-08-23T13:38:11.343Z,33.60
2018-08-23T13:40:41.137Z,33.60
2018-08-23T13:43:10.845Z,33.50
2018-08-23T13:45:40.906Z,33.50
2018-08-23T13:48:10.513Z,33.40
2018-08-23T13:50:40.260Z,33.40
2018-08-23T13:53:10.174Z,33.40
2018-08-23T13:55:39.595Z,33.40
2018-08-23T13:58:09.310Z,33.40
2018-08-23T14:00:40.222Z,33.60
2018-08-23T14:03:10.720Z,33.50
2018-08-23T14:05:41.175Z,33.50
2018-08-23T14:08:10.957Z,33.50
2018-08-23T14:10:40.415Z,33.40
2018-08-23T14:13:10.062Z,33.40
2018-08-23T14:15:44.679Z,33.40
2018-08-23T14:18:14.118Z,33.40
2018-08-23T14:20:43.660Z,33.30
2018-08-23T14:23:13.375Z,33.20
2018-08-23T14:25:43.102Z,33.30
2018-08-23T14:28:13.129Z,33.30
2018-08-23T14:30:43.458Z,33.30
2018-08-23T14:33:13.068Z,33.30
2018-08-23T14:35:42.868Z,33.20
2018-08-23T14:38:12.733Z,33.20
2018-08-23T14:40:42.531Z,33.10
2018-08-23T14:43:12.409Z,33.00
2018-08-23T14:45:42.020Z,32.90
2018-08-23T14:48:19.824Z,32.80
2018-08-23T14:50:52.214Z,32.70
2018-08-23T14:53:26.934Z,32.60
2018-08-23T14:56:01.297Z,32.50
2018-08-23T14:58:31.160Z,32.30
2018-08-23T15:01:00.622Z,32.30
2018-08-23T15:03:30.032Z,32.10
2018-08-23T15:05:59.439Z,32.10
2018-08-23T15:08:28.808Z,32.10
2018-08-23T15:10:58.278Z,32.10
2018-08-23T15:13:27.745Z,32.10
2018-08-23T15:15:57.157Z,32.10
2018-08-23T15:18:26.542Z,32.10
2018-08-23T15:20:56.051Z,32.10
2018-08-23T15:23:25.456Z,32.00
2018-08-23T15:25:54.838Z,32.10
2018-08-23T15:28:24.240Z,31.90
2018-08-23T15:30:53.621Z,31.90
2018-08-23T15:33:23.061Z,31.80
2018-08-23T15:35:52.466Z,31.80
2018-08-23T15:38:21.858Z,31.80
2018-08-23T15:40:51.315Z,31.70
2018-08-23T15:43:20.984Z,31.60
2018-08-23T15:45:50.463Z,31.50
2018-08-23T15:48:19.857Z,31.50
2018-08-23T15:50:49.297Z,31.50
2018-08-23T15:53:18.692Z,31.40
2018-08-23T15:55:48.203Z,31.50
2018-08-23T15:58:17.545Z,31.50
2018-08-23T16:00:46.953Z,31.50
2018-08-23T16:03:16.407Z,31.50
2018-08-23T16:05:45.913Z,31.50
2018-08-23T16:08:15.292Z,31.40
2018-08-23T16:10:44.934Z,31.40
2018-08-23T16:13:14.329Z,31.30
2018-08-23T16:15:43.705Z,31.30
2018-08-23T16:20:24.117Z,31.20
2018-08-23T16:22:53.568Z,31.20
2018-08-23T16:25:23.256Z,31.20
2018-08-23T16:27:52.954Z,31.10
2018-08-23T16:30:22.637Z,31.20
2018-08-23T16:32:52.077Z,31.10
2018-08-23T16:35:21.495Z,31.10
2018-08-23T16:37:51.188Z,31.00
2018-08-23T16:40:25.608Z,31.00
2018-08-23T16:42:55.347Z,31.00
2018-08-23T16:45:24.779Z,31.00
2018-08-23T16:47:54.307Z,30.90
2018-08-23T16:50:23.842Z,30.80
2018-08-23T16:52:53.316Z,30.80
2018-08-23T16:55:22.995Z,30.60
2018-08-23T16:57:52.449Z,30.60
2018-08-23T17:00:22.105Z,30.50
2018-08-23T17:02:51.787Z,30.40
2018-08-23T17:05:21.340Z,30.30
2018-08-23T17:07:50.736Z,30.20
2018-08-23T17:10:20.136Z,30.20
2018-08-23T17:12:49.757Z,30.20
2018-08-23T17:15:19.517Z,30.10
2018-08-23T17:17:53.325Z,30.10
2018-08-23T17:20:22.753Z,30.00
2018-08-23T17:22:52.165Z,29.80
2018-08-23T17:25:21.762Z,29.80
2018-08-23T17:27:51.816Z,29.70
2018-08-23T17:30:21.538Z,29.60
2018-08-23T17:32:51.193Z,29.50
2018-08-23T17:35:20.558Z,29.40
2018-08-23T17:37:50.148Z,29.30
2018-08-23T17:40:19.844Z,29.30
2018-08-23T17:42:49.391Z,29.20
2018-08-23T17:45:19.153Z,29.10
2018-08-23T17:47:48.593Z,29.00
2018-08-23T17:50:18.069Z,28.90
2018-08-23T17:52:47.529Z,28.80
2018-08-23T17:55:16.927Z,28.80
2018-08-23T17:57:46.362Z,28.70
2018-08-23T18:00:15.771Z,28.60
2018-08-23T18:02:45.342Z,28.60
2018-08-23T18:05:14.997Z,28.50
2018-08-23T18:07:44.404Z,28.50
2018-08-23T18:10:13.781Z,28.50
2018-08-23T18:27:37.118Z,28.50
2018-08-23T18:30:06.756Z,28.30
2018-08-23T18:32:36.192Z,28.30
2018-08-23T18:35:05.686Z,28.20
2018-08-23T18:37:35.403Z,28.20
2018-08-23T18:40:05.908Z,28.20
2018-08-23T18:42:35.317Z,28.10
2018-08-23T18:45:05.089Z,28.10
2018-08-23T18:47:34.776Z,28.10
2018-08-23T18:50:04.293Z,28.10
2018-08-23T18:52:33.718Z,28.10
2018-08-23T18:55:03.122Z,28.00
2018-08-23T18:57:32.776Z,28.00
2018-08-23T19:00:02.374Z,28.00
2018-08-23T19:02:32.125Z,28.00
2018-08-23T19:05:01.518Z,28.00
2018-08-23T19:07:35.829Z,27.90
2018-08-23T19:10:05.401Z,27.90
2018-08-23T19:12:35.239Z,27.90
2018-08-23T19:15:05.042Z,27.90
2018-08-23T19:17:36.468Z,27.90
2018-08-23T19:20:06.105Z,27.80
2018-08-23T19:22:35.958Z,27.80
2018-08-23T19:25:07.329Z,27.80
2018-08-23T19:27:36.670Z,27.80
2018-08-23T19:30:06.568Z,27.70
2018-08-23T19:32:36.469Z,27.70
2018-08-23T19:35:06.138Z,27.70
2018-08-23T19:37:36.253Z,27.70
2018-08-23T19:40:05.677Z,27.70
2018-08-23T19:42:35.209Z,27.70
2018-08-23T19:45:05.043Z,27.70
2018-08-23T19:47:39.365Z,27.60
2018-08-23T19:50:18.343Z,27.50
2018-08-23T19:52:48.132Z,27.50
2018-08-23T19:55:17.792Z,27.40
2018-08-23T19:57:47.344Z,27.40
2018-08-23T20:00:16.776Z,27.40
2018-08-23T20:02:46.281Z,27.30
2018-08-23T20:05:16.009Z,27.30
2018-08-23T20:07:45.615Z,27.30
2018-08-23T20:10:15.253Z,27.10
2018-08-23T20:12:45.217Z,27.00
2018-08-23T20:15:14.766Z,26.90
2018-08-23T20:17:44.189Z,26.80
2018-08-23T20:20:13.568Z,26.80
2018-08-23T20:22:43.812Z,26.80
2018-08-23T20:25:14.201Z,26.70
2018-08-23T20:27:44.348Z,26.70
2018-08-23T20:30:13.988Z,26.70
2018-08-23T20:32:44.058Z,26.70
2018-08-23T20:35:13.804Z,26.70
2018-08-23T20:37:43.789Z,26.70
2018-08-23T20:40:14.025Z,26.70
2018-08-23T20:42:43.685Z,26.70
2018-08-23T20:45:13.695Z,26.70
2018-08-23T20:47:43.606Z,26.70
2018-08-23T20:50:13.413Z,26.70
2018-08-23T20:52:43.241Z,26.70
2018-08-23T20:55:12.951Z,26.60
2018-08-23T20:57:42.706Z,26.50
2018-08-23T21:00:13.671Z,26.40
2018-08-23T21:02:43.742Z,26.30
2018-08-23T21:05:13.365Z,26.20
2018-08-23T21:07:43.528Z,26.10
2018-08-23T21:10:13.376Z,25.90
2018-08-23T21:12:43.620Z,25.90
2018-08-23T21:15:13.318Z,25.80
2018-08-23T21:17:42.952Z,25.70
2018-08-23T21:20:12.557Z,25.60
2018-08-23T21:22:42.240Z,25.50
2018-08-23T21:25:12.048Z,25.40
2018-08-23T21:27:41.576Z,25.40
2018-08-23T21:30:11.445Z,25.40
2018-08-23T21:32:41.081Z,25.40
2018-08-23T21:35:10.893Z,25.30
2018-08-23T21:37:40.723Z,25.40
2018-08-23T21:40:10.660Z,25.40
2018-08-23T21:42:40.748Z,25.40
2018-08-23T21:45:11.104Z,25.50
2018-08-23T21:47:41.318Z,25.50
2018-08-23T21:50:11.094Z,25.60
2018-08-23T21:52:40.775Z,25.70
2018-08-23T21:55:10.538Z,25.80
2018-08-23T21:57:40.425Z,26.00
2018-08-23T22:00:10.161Z,26.10
2018-08-23T22:02:39.825Z,26.10
2018-08-23T22:05:09.476Z,26.20
2018-08-23T22:07:39.064Z,26.30
2018-08-23T22:10:08.854Z,26.30
2018-08-23T22:12:38.506Z,26.30
2018-08-23T22:15:08.314Z,26.30
2018-08-23T22:17:38.159Z,26.30
2018-08-23T22:20:07.796Z,26.40
2018-08-23T22:22:37.544Z,26.40
2018-08-23T22:25:07.133Z,26.40
2018-08-23T22:27:36.816Z,26.30
2018-08-23T22:30:06.852Z,26.30
2018-08-23T22:32:36.490Z,26.30
2018-08-23T22:35:06.098Z,26.20
2018-08-23T22:37:35.964Z,26.10
2018-08-23T22:40:05.787Z,26.00
2018-08-23T22:42:35.592Z,25.90
2018-08-23T22:45:05.529Z,25.90
2018-08-23T22:47:35.217Z,25.80
2018-08-23T22:50:04.978Z,25.70
2018-08-23T22:52:34.840Z,25.60
2018-08-23T22:55:04.579Z,25.40
2018-08-23T22:57:34.259Z,25.30
2018-08-23T23:00:04.094Z,25.20
2018-08-23T23:02:40.633Z,25.10
2018-08-23T23:05:11.102Z,25.10
2018-08-23T23:07:42.483Z,25.00
2018-08-23T23:10:12.236Z,24.90
2018-08-23T23:12:41.897Z,24.90
2018-08-23T23:15:16.717Z,24.80
2018-08-23T23:17:46.401Z,24.80
2018-08-23T23:20:16.035Z,24.70
2018-08-23T23:22:45.955Z,24.60
2018-08-23T23:25:15.766Z,24.60
2018-08-23T23:27:45.581Z,24.60
2018-08-23T23:30:15.068Z,24.50
2018-08-23T23:32:44.860Z,24.60
2018-08-23T23:35:14.551Z,24.50
2018-08-23T23:37:44.209Z,24.40
2018-08-23T23:40:14.005Z,24.40
2018-08-23T23:42:43.685Z,24.30
2018-08-23T23:45:13.529Z,24.30
2018-08-23T23:47:43.205Z,24.20
2018-08-23T23:50:12.955Z,24.20
2018-08-23T23:52:42.544Z,24.20
2018-08-23T23:55:12.280Z,24.10
2018-08-23T23:57:41.996Z,24.10
